createdAt,value
2018-06-29T00:01:14.443Z,19.10
2018-06-29T00:03:42.614Z,18.98
2018-06-29T00:06:10.820Z,19.15
2018-06-29T00:08:39.062Z,18.94
2018-06-29T00:11:07.392Z,19.40
2018-06-29T00:13:35.663Z,19.40
2018-06-29T00:16:04.032Z,18.94
2018-06-29T00:18:32.214Z,19.12
2018-06-29T00:21:00.376Z,19.04
2018-06-29T00:23:28.597Z,18.86
2018-06-29T00:25:56.876Z,18.72
2018-06-29T00:28:25.140Z,18.57
2018-06-29T00:30:53.494Z,18.53
2018-06-29T00:33:21.791Z,18.66
2018-06-29T00:35:50.006Z,18.65
2018-06-29T00:38:18.269Z,18.60
2018-06-29T00:40:46.982Z,18.63
2018-06-29T00:43:15.164Z,18.42
2018-06-29T00:45:43.443Z,18.42
2018-06-29T00:48:11.640Z,18.51
2018-06-29T00:50:39.827Z,18.19
2018-06-29T00:53:08.045Z,18.42
2018-06-29T00:55:36.218Z,18.16
2018-06-29T00:58:04.485Z,18.08
2018-06-29T01:00:32.749Z,18.22
2018-06-29T01:03:01.015Z,18.24
2018-06-29T01:05:29.334Z,18.10
2018-06-29T01:07:57.537Z,18.34
2018-06-29T01:10:25.725Z,18.31
2018-06-29T01:12:53.921Z,18.37
2018-06-29T01:15:22.117Z,18.16
2018-06-29T01:17:50.289Z,18.05
2018-06-29T01:20:18.502Z,17.91
2018-06-29T01:22:46.670Z,18.08
2018-06-29T01:25:14.843Z,18.18
2018-06-29T01:27:43.019Z,18.15
2018-06-29T01:30:11.347Z,18.19
2018-06-29T01:32:39.629Z,18.25
2018-06-29T01:35:07.929Z,18.35
2018-06-29T01:37:36.178Z,18.24
2018-06-29T01:40:04.610Z,18.31
2018-06-29T01:42:32.775Z,18.30
2018-06-29T01:45:00.925Z,18.44
2018-06-29T01:47:29.742Z,18.50
2018-06-29T01:49:57.928Z,18.42
2018-06-29T01:52:26.156Z,18.79
2018-06-29T01:54:54.633Z,18.78
2018-06-29T01:57:22.824Z,18.57
2018-06-29T01:59:51.049Z,18.67
2018-06-29T02:02:19.364Z,18.53
2018-06-29T02:04:47.682Z,17.88
2018-06-29T02:07:15.913Z,17.73
2018-06-29T02:09:44.131Z,17.63
2018-06-29T02:12:12.688Z,17.51
2018-06-29T02:14:41.584Z,17.64
2018-06-29T02:17:09.784Z,17.48
2018-06-29T02:19:38.126Z,17.53
2018-06-29T02:22:06.350Z,17.39
2018-06-29T02:24:34.590Z,17.23
2018-06-29T02:27:02.953Z,17.24
2018-06-29T02:29:31.144Z,17.61
2018-06-29T02:31:59.387Z,17.39
2018-06-29T02:34:27.643Z,17.39
2018-06-29T02:36:55.869Z,17.39
2018-06-29T02:39:24.177Z,17.27
2018-06-29T02:41:52.393Z,17.20
2018-06-29T02:44:20.763Z,17.20
2018-06-29T02:46:48.968Z,17.24
2018-06-29T02:49:17.184Z,17.07
2018-06-29T02:51:45.461Z,17.37
2018-06-29T02:54:13.774Z,17.39
2018-06-29T02:56:42.018Z,17.48
2018-06-29T02:59:10.250Z,17.46
2018-06-29T03:01:38.402Z,17.50
2018-06-29T03:04:07.497Z,17.52
2018-06-29T03:06:35.825Z,17.67
2018-06-29T03:09:05.741Z,17.60
2018-06-29T03:11:33.952Z,17.69
2018-06-29T03:14:02.140Z,17.84
2018-06-29T03:16:30.283Z,17.79
2018-06-29T03:18:58.452Z,17.71
2018-06-29T03:21:26.656Z,18.15
2018-06-29T03:23:54.831Z,17.99
2018-06-29T03:26:23.021Z,18.12
2018-06-29T03:28:51.209Z,17.99
2018-06-29T03:31:19.393Z,18.12
2018-06-29T03:33:47.609Z,18.04
2018-06-29T03:36:15.954Z,17.94
2018-06-29T03:38:44.129Z,17.54
2018-06-29T03:41:12.348Z,17.83
2018-06-29T03:43:40.508Z,18.32
2018-06-29T03:46:08.802Z,17.98
2018-06-29T03:48:36.977Z,18.14
2018-06-29T03:51:05.236Z,19.54
2018-06-29T03:53:33.485Z,23.55
2018-06-29T03:56:01.709Z,24.51
2018-06-29T03:58:30.011Z,25.60
2018-06-29T04:00:58.202Z,26.18
2018-06-29T04:03:26.397Z,27.23
2018-06-29T04:05:54.629Z,27.60
2018-06-29T04:08:22.884Z,26.66
2018-06-29T04:10:51.159Z,25.80
2018-06-29T04:13:19.330Z,28.04
2018-06-29T04:15:47.622Z,26.93
2018-06-29T04:18:15.941Z,28.19
2018-06-29T04:20:44.165Z,27.30
2018-06-29T04:23:12.394Z,23.35
2018-06-29T04:25:40.662Z,22.34
2018-06-29T04:28:08.927Z,22.14
2018-06-29T04:30:37.110Z,21.22
2018-06-29T04:33:05.441Z,20.62
2018-06-29T04:35:33.784Z,20.71
2018-06-29T04:38:02.055Z,20.15
2018-06-29T04:40:30.268Z,20.33
2018-06-29T04:42:58.565Z,20.37
2018-06-29T04:45:26.630Z,20.36
2018-06-29T04:47:54.797Z,20.24
2018-06-29T04:50:23.068Z,20.23
2018-06-29T04:52:51.423Z,20.03
2018-06-29T04:55:19.681Z,19.70
2018-06-29T04:57:47.978Z,19.30
2018-06-29T05:00:16.515Z,19.33
2018-06-29T05:02:44.713Z,19.57
2018-06-29T05:05:12.896Z,19.19
2018-06-29T05:07:41.118Z,19.48
2018-06-29T05:10:09.392Z,19.46
2018-06-29T05:12:37.697Z,19.35
2018-06-29T05:15:05.908Z,19.38
2018-06-29T05:17:34.081Z,19.28
2018-06-29T05:20:02.279Z,19.19
2018-06-29T05:22:30.425Z,19.17
2018-06-29T05:24:58.646Z,19.10
2018-06-29T05:27:26.881Z,19.21
2018-06-29T05:29:55.282Z,19.15
2018-06-29T05:32:23.479Z,19.22
2018-06-29T05:34:51.881Z,19.39
2018-06-29T05:37:20.098Z,19.31
2018-06-29T05:39:48.703Z,19.30
2018-06-29T05:42:17.369Z,19.32
2018-06-29T05:44:45.807Z,19.41
2018-06-29T05:47:13.953Z,19.44
2018-06-29T05:49:42.156Z,19.44
2018-06-29T05:52:10.329Z,19.46
2018-06-29T05:54:38.608Z,19.40
2018-06-29T05:57:06.834Z,19.35
2018-06-29T05:59:35.049Z,19.37
2018-06-29T06:02:03.369Z,19.46
2018-06-29T06:04:31.616Z,19.62
2018-06-29T06:06:59.898Z,19.54
2018-06-29T06:09:28.198Z,19.53
2018-06-29T06:11:56.392Z,19.63
2018-06-29T06:14:24.603Z,19.72
2018-06-29T06:16:52.795Z,19.60
2018-06-29T06:19:32.281Z,19.70
2018-06-29T06:22:00.525Z,19.83
2018-06-29T06:24:28.741Z,19.89
2018-06-29T06:26:57.015Z,19.83
2018-06-29T06:29:25.932Z,19.85
2018-06-29T06:31:55.534Z,19.89
2018-06-29T06:34:23.864Z,19.91
2018-06-29T06:36:52.021Z,19.98
2018-06-29T06:39:20.194Z,20.07
2018-06-29T06:41:48.396Z,20.08
2018-06-29T06:44:16.600Z,20.05
2018-06-29T06:46:44.866Z,20.13
2018-06-29T06:49:13.783Z,20.21
2018-06-29T06:51:42.034Z,20.26
2018-06-29T06:54:10.217Z,20.22
2018-06-29T06:56:38.479Z,20.38
2018-06-29T06:59:06.672Z,20.42
2018-06-29T07:01:34.868Z,20.49
2018-06-29T07:04:03.236Z,20.47
2018-06-29T07:06:31.558Z,20.50
2018-06-29T07:08:59.776Z,20.51
2018-06-29T07:11:27.999Z,20.52
2018-06-29T07:13:56.200Z,20.70
2018-06-29T07:16:24.397Z,20.73
2018-06-29T07:18:52.553Z,20.72
2018-06-29T07:21:20.960Z,20.77
2018-06-29T07:23:49.116Z,20.97
2018-06-29T07:26:17.293Z,20.94
2018-06-29T07:28:45.612Z,20.81
2018-06-29T07:31:13.917Z,21.04
2018-06-29T07:33:42.184Z,21.08
2018-06-29T07:36:10.380Z,21.06
2018-06-29T07:38:38.657Z,21.17
2018-06-29T07:41:06.946Z,21.22
2018-06-29T07:43:35.186Z,21.11
2018-06-29T07:46:03.426Z,21.15
2018-06-29T07:48:31.708Z,21.16
2018-06-29T07:50:59.881Z,21.31
2018-06-29T07:53:28.168Z,21.35
2018-06-29T07:55:56.297Z,21.20
2018-06-29T07:58:24.580Z,21.22
2018-06-29T08:00:56.098Z,21.32
2018-06-29T08:03:28.554Z,21.47
2018-06-29T08:05:56.735Z,21.59
2018-06-29T08:08:25.247Z,21.50
2018-06-29T08:10:53.565Z,21.56
2018-06-29T08:13:21.793Z,21.49
2018-06-29T08:15:50.192Z,21.72
2018-06-29T08:18:18.345Z,21.76
2018-06-29T08:20:46.514Z,21.69
2018-06-29T08:23:14.768Z,21.83
2018-06-29T08:25:43.052Z,21.79
2018-06-29T08:28:11.403Z,21.85
2018-06-29T08:30:39.655Z,22.18
2018-06-29T08:33:07.946Z,21.92
2018-06-29T08:35:36.195Z,21.96
2018-06-29T08:38:04.352Z,22.18
2018-06-29T08:40:32.553Z,22.42
2018-06-29T08:43:00.723Z,22.31
2018-06-29T08:45:28.955Z,22.51
2018-06-29T08:47:57.190Z,22.43
2018-06-29T08:50:25.454Z,22.88
2018-06-29T08:52:53.900Z,22.96
2018-06-29T08:55:22.126Z,22.65
2018-06-29T08:57:50.319Z,22.80
2018-06-29T09:00:18.491Z,22.79
2018-06-29T09:02:46.710Z,22.64
2018-06-29T09:05:14.975Z,22.60
2018-06-29T09:07:43.277Z,22.66
2018-06-29T09:10:11.455Z,23.20
2018-06-29T09:12:39.742Z,23.25
2018-06-29T09:15:07.988Z,22.91
2018-06-29T09:17:36.191Z,23.19
2018-06-29T09:20:04.420Z,23.09
2018-06-29T09:22:32.701Z,23.08
2018-06-29T09:25:00.898Z,23.07
2018-06-29T09:27:29.252Z,23.41
2018-06-29T09:29:57.556Z,23.17
2018-06-29T09:32:25.889Z,23.13
2018-06-29T09:34:54.079Z,23.32
2018-06-29T09:37:22.313Z,23.57
2018-06-29T09:39:50.480Z,23.58
2018-06-29T09:42:18.692Z,23.53
2018-06-29T09:44:46.914Z,23.58
2018-06-29T09:47:15.093Z,23.59
2018-06-29T09:49:43.456Z,23.42
2018-06-29T09:52:11.681Z,23.77
2018-06-29T09:54:39.955Z,23.69
2018-06-29T09:57:08.174Z,23.62
2018-06-29T09:59:36.370Z,23.46
2018-06-29T10:02:04.679Z,23.69
2018-06-29T10:04:32.953Z,23.42
2018-06-29T10:07:01.153Z,23.55
2018-06-29T10:09:29.423Z,23.55
2018-06-29T10:11:57.632Z,23.60
2018-06-29T10:14:25.960Z,23.87
2018-06-29T10:16:54.201Z,23.88
2018-06-29T10:19:22.400Z,23.73
2018-06-29T10:21:50.605Z,24.01
2018-06-29T10:24:18.988Z,24.07
2018-06-29T10:26:47.117Z,24.27
2018-06-29T10:29:15.479Z,24.14
2018-06-29T10:31:43.954Z,23.94
2018-06-29T10:34:12.160Z,23.88
2018-06-29T10:36:40.331Z,23.96
2018-06-29T10:39:11.373Z,24.16
2018-06-29T10:41:39.795Z,24.04
2018-06-29T10:44:08.000Z,24.22
2018-06-29T10:46:36.234Z,24.53
2018-06-29T10:49:04.549Z,24.49
2018-06-29T10:51:32.740Z,24.38
2018-06-29T10:54:00.964Z,24.69
2018-06-29T10:56:29.166Z,24.49
2018-06-29T10:58:57.385Z,24.61
2018-06-29T11:01:25.655Z,24.54
2018-06-29T11:03:53.889Z,24.78
2018-06-29T11:06:22.119Z,24.45
2018-06-29T11:08:50.302Z,24.36
2018-06-29T11:11:18.489Z,24.27
2018-06-29T11:13:46.731Z,24.35
2018-06-29T11:16:15.011Z,24.54
2018-06-29T11:18:43.287Z,24.54
2018-06-29T11:21:11.516Z,24.70
2018-06-29T11:23:40.170Z,24.84
2018-06-29T11:26:08.356Z,24.77
2018-06-29T11:28:36.516Z,24.70
2018-06-29T11:31:04.712Z,24.62
2018-06-29T11:33:32.900Z,24.69
2018-06-29T11:36:01.073Z,24.63
2018-06-29T11:38:29.260Z,24.87
2018-06-29T11:40:57.526Z,25.03
2018-06-29T11:43:25.894Z,24.98
2018-06-29T11:45:54.109Z,25.02
2018-06-29T11:48:22.304Z,25.05
2018-06-29T11:50:50.523Z,24.92
2018-06-29T11:53:18.734Z,25.00
2018-06-29T11:55:46.977Z,25.01
2018-06-29T11:58:15.204Z,25.19
2018-06-29T12:00:43.657Z,25.24
2018-06-29T12:03:11.810Z,25.43
2018-06-29T12:05:40.126Z,25.49
2018-06-29T12:08:08.467Z,25.61
2018-06-29T12:10:36.496Z,25.45
2018-06-29T12:13:04.696Z,25.25
2018-06-29T12:15:32.933Z,25.30
2018-06-29T12:18:01.132Z,25.65
2018-06-29T12:20:29.558Z,25.74
2018-06-29T12:22:57.807Z,25.59
2018-06-29T12:25:26.088Z,25.55
2018-06-29T12:27:54.379Z,25.69
2018-06-29T12:30:22.549Z,25.68
2018-06-29T12:32:50.874Z,25.79
2018-06-29T12:35:19.017Z,25.72
2018-06-29T12:37:47.279Z,25.88
2018-06-29T12:40:15.545Z,25.97
2018-06-29T12:42:43.805Z,25.93
2018-06-29T12:45:12.016Z,26.14
2018-06-29T12:47:40.286Z,25.95
2018-06-29T12:50:08.457Z,25.98
2018-06-29T12:52:36.672Z,26.12
2018-06-29T12:55:11.722Z,26.07
2018-06-29T12:57:39.958Z,26.27
2018-06-29T13:00:08.221Z,26.31
2018-06-29T13:02:36.402Z,26.28
2018-06-29T13:05:04.752Z,26.09
2018-06-29T13:07:32.936Z,26.24
2018-06-29T13:10:01.174Z,26.52
2018-06-29T13:12:29.514Z,26.48
2018-06-29T13:14:57.749Z,26.59
2018-06-29T13:17:26.092Z,26.59
2018-06-29T13:19:54.408Z,26.35
2018-06-29T13:22:22.703Z,26.44
2018-06-29T13:24:51.086Z,26.26
2018-06-29T13:27:19.324Z,26.27
2018-06-29T13:29:47.652Z,26.40
2018-06-29T13:32:15.926Z,26.46
2018-06-29T13:34:44.241Z,26.62
2018-06-29T13:37:12.548Z,26.53
2018-06-29T13:39:40.854Z,26.46
2018-06-29T13:42:09.606Z,26.67
2018-06-29T13:44:37.891Z,26.32
2018-06-29T13:47:06.227Z,26.54
2018-06-29T13:49:34.504Z,26.70
2018-06-29T13:52:02.964Z,26.82
2018-06-29T13:54:31.295Z,26.97
2018-06-29T13:56:59.644Z,26.96
2018-06-29T13:59:27.993Z,26.80
2018-06-29T14:01:56.313Z,26.76
2018-06-29T14:04:24.625Z,26.49
2018-06-29T14:06:52.927Z,26.56
2018-06-29T14:09:21.277Z,26.58
2018-06-29T14:11:49.539Z,26.64
2018-06-29T14:14:17.807Z,26.62
2018-06-29T14:16:46.083Z,26.57
2018-06-29T14:19:14.412Z,26.42
2018-06-29T14:21:42.735Z,26.29
2018-06-29T14:24:11.719Z,26.24
2018-06-29T14:26:40.019Z,26.17
2018-06-29T14:29:08.297Z,26.15
2018-06-29T14:31:36.577Z,26.01
2018-06-29T14:34:04.924Z,26.11
2018-06-29T14:36:33.304Z,25.97
2018-06-29T14:39:01.648Z,26.02
2018-06-29T14:41:29.955Z,26.37
2018-06-29T14:43:58.537Z,26.67
2018-06-29T14:46:26.897Z,26.86
2018-06-29T14:48:55.181Z,26.78
2018-06-29T14:51:23.485Z,26.83
2018-06-29T14:53:51.759Z,26.90
2018-06-29T14:56:19.983Z,26.95
2018-06-29T14:58:48.587Z,26.64
2018-06-29T15:01:16.845Z,26.87
2018-06-29T15:03:45.169Z,26.88
2018-06-29T15:06:13.571Z,26.75
2018-06-29T15:08:41.884Z,26.93
2018-06-29T15:11:10.165Z,26.82
2018-06-29T15:13:38.470Z,27.04
2018-06-29T15:16:06.823Z,27.26
2018-06-29T15:18:35.139Z,26.86
2018-06-29T15:21:03.433Z,27.33
2018-06-29T15:23:31.685Z,26.79
2018-06-29T15:26:00.613Z,26.91
2018-06-29T15:28:28.916Z,27.08
2018-06-29T15:30:57.253Z,26.61
2018-06-29T15:33:25.633Z,26.60
2018-06-29T15:35:53.985Z,26.40
2018-06-29T15:38:22.297Z,26.32
2018-06-29T15:40:50.583Z,26.54
2018-06-29T15:43:18.920Z,26.83
2018-06-29T15:45:47.196Z,26.83
2018-06-29T15:48:15.496Z,27.23
2018-06-29T15:50:43.821Z,27.44
2018-06-29T15:53:12.183Z,27.18
2018-06-29T15:55:40.549Z,26.94
2018-06-29T15:58:08.843Z,27.05
2018-06-29T16:00:37.162Z,27.14
2018-06-29T16:03:05.856Z,27.15
2018-06-29T16:05:34.137Z,27.30
2018-06-29T16:08:02.435Z,27.18
2018-06-29T16:10:30.941Z,26.61
2018-06-29T16:12:59.405Z,26.56
2018-06-29T16:15:27.710Z,26.61
2018-06-29T16:17:56.042Z,27.02
2018-06-29T16:20:24.325Z,27.01
2018-06-29T16:22:52.616Z,27.36
2018-06-29T16:25:20.888Z,27.25
2018-06-29T16:27:49.357Z,26.70
2018-06-29T16:30:17.668Z,26.61
2018-06-29T16:32:46.114Z,26.71
2018-06-29T16:35:14.453Z,26.36
2018-06-29T16:37:42.774Z,26.67
2018-06-29T16:40:11.093Z,26.85
2018-06-29T16:42:39.402Z,26.81
2018-06-29T16:45:07.939Z,27.02
2018-06-29T16:47:36.285Z,27.01
2018-06-29T16:50:04.895Z,27.11
2018-06-29T16:52:33.185Z,27.00
2018-06-29T16:55:01.611Z,26.80
2018-06-29T16:57:29.921Z,26.72
2018-06-29T16:59:58.236Z,26.92
2018-06-29T17:02:26.504Z,26.84
2018-06-29T17:04:54.774Z,26.86
2018-06-29T17:07:23.204Z,26.99
2018-06-29T17:09:51.569Z,26.84
2018-06-29T17:12:19.937Z,27.01
2018-06-29T17:14:48.238Z,26.80
2018-06-29T17:17:16.598Z,27.03
2018-06-29T17:19:44.978Z,27.38
2018-06-29T17:22:13.300Z,26.77
2018-06-29T17:24:41.629Z,26.95
2018-06-29T17:27:10.184Z,26.47
2018-06-29T17:29:38.405Z,26.25
2018-06-29T17:32:06.796Z,26.59
2018-06-29T17:34:35.134Z,26.39
2018-06-29T17:37:03.548Z,25.73
2018-06-29T17:39:31.972Z,26.01
2018-06-29T17:42:00.303Z,26.29
2018-06-29T17:44:28.589Z,26.36
2018-06-29T17:46:57.143Z,26.29
2018-06-29T17:49:25.437Z,26.33
2018-06-29T17:51:53.714Z,26.16
2018-06-29T17:54:22.141Z,25.92
2018-06-29T17:56:50.469Z,25.45
2018-06-29T17:59:18.809Z,25.87
2018-06-29T18:01:47.119Z,25.76
2018-06-29T18:04:15.477Z,25.66
2018-06-29T18:06:43.761Z,25.72
2018-06-29T18:09:12.679Z,25.88
2018-06-29T18:11:41.116Z,25.35
2018-06-29T18:14:09.422Z,25.81
2018-06-29T18:16:37.733Z,25.96
2018-06-29T18:19:06.137Z,25.63
2018-06-29T18:21:34.429Z,25.71
2018-06-29T18:24:02.753Z,25.49
2018-06-29T18:26:31.116Z,25.77
2018-06-29T18:28:59.603Z,25.55
2018-06-29T18:31:27.894Z,25.56
2018-06-29T18:33:56.194Z,25.16
2018-06-29T18:36:24.468Z,25.61
2018-06-29T18:38:53.332Z,25.01
2018-06-29T18:41:21.901Z,25.08
2018-06-29T18:43:51.196Z,25.21
2018-06-29T18:46:19.540Z,24.85
2018-06-29T18:48:47.824Z,25.07
2018-06-29T18:51:16.136Z,25.02
2018-06-29T18:53:44.391Z,24.86
2018-06-29T18:56:12.727Z,24.89
2018-06-29T18:58:41.159Z,24.25
2018-06-29T19:01:09.527Z,24.49
2018-06-29T19:03:37.917Z,24.26
2018-06-29T19:06:06.235Z,24.45
2018-06-29T19:08:34.536Z,24.69
2018-06-29T19:11:02.855Z,24.51
2018-06-29T19:13:31.732Z,24.46
2018-06-29T19:16:00.128Z,24.58
2018-06-29T19:18:28.442Z,24.50
2018-06-29T19:20:56.802Z,24.32
2018-06-29T19:23:25.184Z,24.21
2018-06-29T19:25:53.524Z,24.32
2018-06-29T19:28:21.876Z,24.40
2018-06-29T19:30:50.180Z,24.06
2018-06-29T19:33:18.521Z,24.13
2018-06-29T19:35:47.196Z,24.25
2018-06-29T19:38:17.648Z,24.04
2018-06-29T19:40:46.309Z,23.83
2018-06-29T19:43:14.586Z,23.95
2018-06-29T19:45:43.025Z,24.07
2018-06-29T19:48:11.391Z,23.82
2018-06-29T19:50:39.823Z,23.59
2018-06-29T19:53:08.511Z,23.59
2018-06-29T19:55:36.924Z,23.83
2018-06-29T19:58:05.509Z,23.57
2018-06-29T20:00:33.824Z,23.48
2018-06-29T20:03:02.113Z,23.69
2018-06-29T20:05:31.044Z,23.74
2018-06-29T20:07:59.467Z,23.50
2018-06-29T20:10:27.811Z,23.44
2018-06-29T20:12:56.090Z,23.52
2018-06-29T20:15:24.379Z,23.54
2018-06-29T20:17:53.427Z,23.12
2018-06-29T20:20:21.794Z,23.18
2018-06-29T20:22:50.050Z,22.88
2018-06-29T20:25:18.365Z,23.19
2018-06-29T20:27:46.650Z,23.31
2018-06-29T20:30:15.053Z,22.71
2018-06-29T20:32:43.586Z,22.74
2018-06-29T20:35:11.963Z,22.74
2018-06-29T20:37:40.401Z,23.02
2018-06-29T20:40:08.717Z,22.27
2018-06-29T20:42:37.002Z,22.78
2018-06-29T20:45:05.369Z,22.97
2018-06-29T20:47:33.818Z,22.58
2018-06-29T20:50:02.138Z,22.76
2018-06-29T20:52:30.433Z,22.06
2018-06-29T20:54:58.912Z,22.30
2018-06-29T20:57:27.174Z,22.78
2018-06-29T20:59:55.590Z,22.50
2018-06-29T21:02:23.864Z,22.63
2018-06-29T21:04:52.223Z,22.74
2018-06-29T21:07:20.578Z,22.70
2018-06-29T21:09:48.960Z,22.82
2018-06-29T21:12:17.285Z,22.62
2018-06-29T21:14:45.570Z,22.74
2018-06-29T21:17:14.047Z,22.60
2018-06-29T21:19:42.324Z,22.67
2018-06-29T21:22:10.621Z,22.34
2018-06-29T21:24:38.953Z,22.60
2018-06-29T21:27:07.673Z,22.38
2018-06-29T21:29:35.963Z,22.14
2018-06-29T21:32:04.364Z,22.51
2018-06-29T21:34:32.718Z,22.53
2018-06-29T21:37:01.073Z,22.45
2018-06-29T21:39:29.455Z,22.45
2018-06-29T21:41:57.776Z,22.20
2018-06-29T21:44:26.124Z,22.16
2018-06-29T21:46:54.423Z,22.22
2018-06-29T21:49:22.722Z,22.40
2018-06-29T21:51:51.612Z,22.22
2018-06-29T21:54:20.046Z,22.24
2018-06-29T21:56:48.315Z,22.24
2018-06-29T21:59:16.579Z,22.10
2018-06-29T22:01:45.044Z,21.77
2018-06-29T22:04:13.376Z,21.53
2018-06-29T22:06:41.666Z,21.46
2018-06-29T22:09:10.358Z,21.40
2018-06-29T22:11:38.684Z,21.43
2018-06-29T22:14:07.281Z,21.16
2018-06-29T22:16:35.638Z,20.93
2018-06-29T22:19:03.986Z,21.26
2018-06-29T22:21:32.386Z,21.04
2018-06-29T22:24:00.698Z,21.29
2018-06-29T22:26:29.003Z,20.85
2018-06-29T22:28:57.276Z,20.83
2018-06-29T22:31:25.627Z,20.57
2018-06-29T22:33:53.887Z,20.33
2018-06-29T22:36:22.204Z,20.48
2018-06-29T22:38:50.460Z,20.60
2018-06-29T22:41:18.972Z,20.53
2018-06-29T22:43:48.457Z,20.41
2018-06-29T22:46:16.787Z,20.31
2018-06-29T22:48:45.219Z,20.57
2018-06-29T22:51:13.496Z,20.10
2018-06-29T22:53:41.977Z,20.40
2018-06-29T22:56:10.724Z,20.46
2018-06-29T22:58:39.255Z,20.53
2018-06-29T23:01:07.636Z,20.61
2018-06-29T23:03:41.117Z,20.29
2018-06-29T23:06:10.289Z,20.29
2018-06-29T23:08:38.585Z,20.03
2018-06-29T23:11:06.983Z,20.39
2018-06-29T23:13:35.495Z,20.23
2018-06-29T23:16:03.875Z,20.34
2018-06-29T23:18:32.185Z,20.37
2018-06-29T23:21:00.491Z,20.32
2018-06-29T23:23:28.778Z,19.66
2018-06-29T23:25:57.188Z,19.88
2018-06-29T23:28:25.640Z,20.04
2018-06-29T23:30:53.929Z,20.01
2018-06-29T23:33:22.193Z,19.79
2018-06-29T23:35:50.630Z,19.74
2018-06-29T23:38:18.986Z,19.46
2018-06-29T23:40:47.346Z,19.49
2018-06-29T23:43:15.654Z,19.51
2018-06-29T23:45:43.970Z,19.68
2018-06-29T23:48:12.734Z,19.38
2018-06-29T23:50:41.114Z,19.44
2018-06-29T23:53:09.482Z,19.62
2018-06-29T23:55:37.791Z,19.37
2018-06-29T23:58:06.171Z,19.39
